サマルカンド の空港の天気 - METARとTAF

サマルカンド空港 ( UTSS / SKD ) - ウズベキスタン サマルカンド
飛行場実況気象(Metar)
観測時間02/06 00:30 UZT (02/05 19:30 UTC)
風向・風速東南東 10m/s
視程5000m
天気現象もや
なし
気温5℃
湿度87%
気圧1016hPa
METARUTSS 051930Z 11020KT 5000 BR NSC 05/03 Q1016 R09/CLRD70 NOSIG
過去の天気等 Google飛行場航空写真 Wunderground天気予報

過去48時間のMETAR

飛行場予報(TAF)
発表時間: 2/05 22:00 UZT (2/05 17:00 UTC)
予報対象時間: 5日23時 UZT ~ 6日23時 UZT
風向・風速東 5m/s 瞬間風速 10m/s
視程7000m
全天の4割程度の雲 雲底高度 910m
全天の8割程度の雲 雲底高度 3050m
5日23時 UZT ~ 6日3時 UZT に一時的に
風向・風速南南東 5m/s
視程1500m
天気現象もや
全天の8割程度の雲 雲底高度 90m
6日3時 UZT ~ 6日9時 UZT に一時的に
視程500m
天気現象
全天を覆う雲 鉛直視程 60m
TAF UTSS 051700Z 0518/0618 10010G20KT 7000 SCT030 BKN100
TEMPO 0518/0522 15010KT 1500 BR BKN003
TEMPO 0522/0604 0500 FG VV002
FM0609 27014G24KT -SHRA BKN050CB